Time;durP1;ratioP1;P1;durP2;ratioP2;P2;SDS_P1;SDS_P2;PMS_P1;PMS_P2;Temp;Humidity;BMP_temperature;BMP_pressure;BME280_temperature;BME280_humidity;BME280_pressure;Samples;Min_cycle;Max_cycle;Signal;HPM_P1;HPM_P2
2021/08/07 00:00:00;;;;;;;10.48;6.80;;;16.70;99.90;;;;;;6243335;22;20018;-84
2021/08/07 00:02:26;;;;;;;8.85;7.32;;;16.70;99.90;;;;;;6245297;22;20011;-86
2021/08/07 00:04:52;;;;;;;8.30;6.68;;;16.70;99.90;;;;;;6244688;22;20003;-85
2021/08/07 00:07:19;;;;;;;9.32;6.88;;;16.70;99.90;;;;;;6242948;22;20098;-85
2021/08/07 00:09:45;;;;;;;9.98;7.05;;;16.70;99.90;;;;;;6243372;22;20077;-85
2021/08/07 00:12:11;;;;;;;9.38;6.95;;;16.70;99.90;;;;;;6268537;22;20015;-85
2021/08/07 00:14:37;;;;;;;9.10;6.82;;;16.70;99.90;;;;;;6241684;22;20039;-86
2021/08/07 00:17:02;;;;;;;9.10;6.80;;;16.70;99.90;;;;;;6217807;22;20012;-85
2021/08/07 00:19:30;;;;;;;8.88;6.90;;;16.70;99.90;;;;;;6242395;22;20502;-85
2021/08/07 00:21:56;;;;;;;11.63;7.20;;;16.60;99.90;;;;;;6243150;22;20158;-86
2021/08/07 00:24:22;;;;;;;10.23;7.10;;;16.70;99.90;;;;;;6242343;22;20435;-86
2021/08/07 00:26:47;;;;;;;9.45;7.25;;;16.70;99.90;;;;;;6242665;22;20022;-85
2021/08/07 00:29:13;;;;;;;10.57;6.55;;;16.70;99.90;;;;;;6242325;22;20063;-85
2021/08/07 00:31:39;;;;;;;8.40;6.53;;;16.70;99.90;;;;;;6268094;22;20011;-85
2021/08/07 00:34:05;;;;;;;11.38;6.68;;;16.70;99.90;;;;;;6243496;22;20034;-86
2021/08/07 00:36:31;;;;;;;10.85;5.60;;;16.70;99.90;;;;;;6241632;22;20448;-86
2021/08/07 00:38:57;;;;;;;8.85;5.38;;;16.70;99.90;;;;;;6241401;22;20019;-86
2021/08/07 00:41:22;;;;;;;8.85;4.88;;;16.70;99.90;;;;;;6240949;22;20012;-85
2021/08/07 00:43:48;;;;;;;11.10;4.40;;;16.70;99.90;;;;;;6242344;22;20008;-86
2021/08/07 00:46:14;;;;;;;7.30;3.85;;;16.70;99.90;;;;;;6243010;22;20057;-85
2021/08/07 00:48:40;;;;;;;8.35;3.85;;;16.70;99.90;;;;;;6242166;22;20011;-86
2021/08/07 00:51:06;;;;;;;7.97;3.63;;;16.70;99.90;;;;;;6241159;22;20114;-86
2021/08/07 00:53:41;;;;;;;7.03;3.22;;;16.70;99.90;;;;;;6242829;22;20034;-86
2021/08/07 00:56:07;;;;;;;4.28;2.85;;;16.70;99.90;;;;;;6242082;22;20476;-86
2021/08/07 00:58:33;;;;;;;8.00;3.33;;;16.70;99.90;;;;;;6267387;22;20077;-85
2021/08/07 01:01:06;;;;;;;5.30;2.78;;;16.70;99.90;;;;;;6242587;22;20465;-85
2021/08/07 01:03:54;;;;;;;4.35;2.72;;;16.70;99.90;;;;;;6266546;22;20371;-85
2021/08/07 01:06:46;;;;;;;6.75;2.80;;;16.60;99.90;;;;;;6240748;22;20020;-85
2021/08/07 01:09:15;;;;;;;7.78;2.35;;;16.60;99.90;;;;;;6276408;22;20016;-86
2021/08/07 01:12:09;;;;;;;6.22;2.63;;;16.60;99.90;;;;;;6266327;22;20019;-87
2021/08/07 01:14:38;;;;;;;6.50;3.03;;;16.50;99.90;;;;;;6288999;22;20047;-85
2021/08/07 01:17:21;;;;;;;5.90;2.25;;;16.50;99.90;;;;;;6217375;22;20023;-86
2021/08/07 01:20:30;;;;;;;7.22;2.53;;;16.50;99.90;;;;;;6215034;22;20031;-85
2021/08/07 01:23:30;;;;;;;5.55;2.50;;;16.40;99.90;;;;;;6172750;23;20184;-85
2021/08/07 01:25:56;;;;;;;5.53;2.22;;;16.40;99.90;;;;;;6206150;22;20456;-86
2021/08/07 01:28:25;;;;;;;6.57;2.58;;;16.40;99.90;;;;;;6241011;22;20018;-86
2021/08/07 01:30:53;;;;;;;7.07;2.00;;;16.40;99.90;;;;;;6214977;22;20022;-86
2021/08/07 01:33:20;;;;;;;5.45;2.20;;;16.30;99.90;;;;;;6215211;22;20087;-86
2021/08/07 01:35:50;;;;;;;3.20;1.73;;;16.30;99.90;;;;;;6165570;22;20099;-86
2021/08/07 01:38:16;;;;;;;8.05;2.20;;;16.30;99.90;;;;;;6216256;22;20011;-86
2021/08/07 01:40:42;;;;;;;6.18;2.03;;;16.30;99.90;;;;;;6241195;22;20095;-85
2021/08/07 01:43:08;;;;;;;5.90;2.00;;;16.30;99.90;;;;;;6215193;22;20448;-86
2021/08/07 01:45:34;;;;;;;4.68;1.80;;;16.30;99.90;;;;;;6191261;22;20118;-85
2021/08/07 01:48:05;;;;;;;6.53;1.90;;;16.30;99.80;;;;;;6240855;22;20015;-86
2021/08/07 01:50:41;;;;;;;3.33;1.60;;;16.20;99.70;;;;;;6241434;22;20086;-85
2021/08/07 01:53:11;;;;;;;4.95;2.28;;;16.20;99.70;;;;;;6214796;22;20039;-85
2021/08/07 01:55:45;;;;;;;4.55;1.77;;;16.20;99.70;;;;;;6240782;22;20471;-86
2021/08/07 01:58:17;;;;;;;5.90;1.70;;;16.20;99.80;;;;;;6241150;22;20003;-85
2021/08/07 02:00:45;;;;;;;4.73;2.07;;;16.20;99.80;;;;;;6250541;22;20114;-85
2021/08/07 02:03:12;;;;;;;5.32;2.10;;;16.20;99.90;;;;;;6214953;22;20345;-86
2021/08/07 02:05:39;;;;;;;4.65;2.13;;;16.10;99.90;;;;;;6191496;22;20007;-85
2021/08/07 02:08:08;;;;;;;3.30;2.00;;;16.10;99.90;;;;;;6215331;22;20031;-85
2021/08/07 02:10:35;;;;;;;5.43;2.50;;;16.00;99.90;;;;;;6215753;22;20018;-86
2021/08/07 02:13:01;;;;;;;6.78;2.55;;;16.00;99.90;;;;;;6219160;22;20046;-86
2021/08/07 02:15:29;;;;;;;7.43;3.55;;;16.00;99.90;;;;;;6269075;22;20020;-86
2021/08/07 02:17:55;;;;;;;5.88;3.35;;;16.00;99.90;;;;;;6242955;22;20349;-85
2021/08/07 02:20:22;;;;;;;8.48;4.05;;;16.00;99.90;;;;;;6266992;22;20007;-86
2021/08/07 02:22:50;;;;;;;6.80;4.50;;;15.90;99.90;;;;;;6242487;22;20012;-85
2021/08/07 02:25:17;;;;;;;8.60;5.35;;;15.90;99.90;;;;;;6218133;22;20011;-86
2021/08/07 02:27:43;;;;;;;8.20;4.82;;;15.90;99.90;;;;;;6269007;22;20376;-86
2021/08/07 02:30:10;;;;;;;8.88;4.68;;;15.90;99.90;;;;;;6268169;22;20012;-86
2021/08/07 02:32:38;;;;;;;8.98;5.10;;;15.90;99.90;;;;;;6241461;22;20011;-86
2021/08/07 02:35:06;;;;;;;7.97;5.05;;;15.90;99.90;;;;;;6268970;22;20016;-85
2021/08/07 02:37:33;;;;;;;7.38;4.18;;;16.00;99.90;;;;;;6268306;22;20337;-85
2021/08/07 02:40:00;;;;;;;9.68;4.63;;;15.90;99.90;;;;;;6268503;22;20008;-86
2021/08/07 02:42:26;;;;;;;6.13;3.65;;;16.00;99.90;;;;;;6264452;22;20039;-84
2021/08/07 02:44:53;;;;;;;9.23;3.63;;;16.00;99.90;;;;;;6268457;22;20365;-86
2021/08/07 02:47:21;;;;;;;13.18;3.47;;;16.00;99.90;;;;;;6242424;22;20016;-85
2021/08/07 02:49:50;;;;;;;6.93;2.85;;;16.00;99.90;;;;;;6268375;22;20050;-86
2021/08/07 02:52:16;;;;;;;9.90;2.92;;;16.00;99.90;;;;;;6243861;22;20448;-86
2021/08/07 02:54:44;;;;;;;8.48;2.80;;;16.10;99.90;;;;;;6217565;22;20273;-85
2021/08/07 02:57:13;;;;;;;6.85;3.03;;;16.10;99.90;;;;;;6243788;22;20090;-85
2021/08/07 02:59:39;;;;;;;6.63;2.90;;;16.10;99.90;;;;;;6242120;22;20035;-86
2021/08/07 03:02:06;;;;;;;10.18;3.35;;;16.10;99.90;;;;;;6216140;22;20016;-86
2021/08/07 03:04:32;;;;;;;5.07;2.83;;;16.10;99.90;;;;;;6242489;22;20011;-86
2021/08/07 03:06:58;;;;;;;7.70;3.13;;;16.10;99.90;;;;;;6217805;22;20008;-86
2021/08/07 03:09:24;;;;;;;4.50;2.95;;;16.10;99.90;;;;;;6240949;22;20016;-87
2021/08/07 03:11:50;;;;;;;7.65;3.10;;;16.00;99.90;;;;;;6242003;22;20018;-86
2021/08/07 03:14:16;;;;;;;10.55;3.15;;;16.00;99.90;;;;;;6265995;22;20031;-85
2021/08/07 03:16:42;;;;;;;10.10;3.38;;;16.00;99.90;;;;;;6243083;22;20057;-86
2021/08/07 03:19:08;;;;;;;8.10;3.50;;;16.00;99.90;;;;;;6268186;22;20066;-86
2021/08/07 03:21:34;;;;;;;9.60;3.70;;;16.00;99.90;;;;;;6243053;22;20099;-86
2021/08/07 03:24:00;;;;;;;7.53;3.92;;;16.00;99.90;;;;;;6242014;22;20683;-86
2021/08/07 03:26:26;;;;;;;6.05;3.65;;;15.90;99.90;;;;;;6243276;22;20250;-86
2021/08/07 03:28:53;;;;;;;7.47;3.53;;;15.90;99.90;;;;;;6267222;22;20061;-87
2021/08/07 03:31:19;;;;;;;6.32;4.18;;;15.90;99.90;;;;;;6284868;22;20018;-87
2021/08/07 03:33:45;;;;;;;7.30;4.47;;;15.90;99.90;;;;;;6271955;22;20051;-88
2021/08/07 03:36:11;;;;;;;8.98;4.22;;;15.90;99.90;;;;;;6247205;22;20019;-86
2021/08/07 03:38:38;;;;;;;7.50;4.25;;;15.80;99.90;;;;;;6267195;22;20509;-86
2021/08/07 03:41:04;;;;;;;15.80;4.20;;;15.80;99.90;;;;;;6242994;22;20016;-85
2021/08/07 03:43:30;;;;;;;9.90;4.47;;;15.80;99.90;;;;;;6239413;22;20360;-86
2021/08/07 03:45:56;;;;;;;5.13;4.00;;;15.80;99.90;;;;;;6216178;22;20016;-88
2021/08/07 03:48:22;;;;;;;10.77;4.10;;;15.80;99.90;;;;;;6242063;22;20008;-87
2021/08/07 03:50:48;;;;;;;9.25;3.88;;;15.80;99.90;;;;;;6241181;22;20079;-86
2021/08/07 03:53:14;;;;;;;9.00;4.25;;;15.80;99.90;;;;;;6240173;22;20365;-86
2021/08/07 03:55:40;;;;;;;9.00;4.25;;;15.80;99.90;;;;;;6218760;22;20072;-86
2021/08/07 03:58:06;;;;;;;9.18;4.15;;;15.70;99.90;;;;;;6243084;22;20060;-86
2021/08/07 04:00:35;;;;;;;10.85;4.50;;;15.70;99.90;;;;;;6267551;22;20012;-86
2021/08/07 04:03:01;;;;;;;8.35;4.35;;;15.70;99.90;;;;;;6241542;22;20012;-85
2021/08/07 04:05:27;;;;;;;9.15;3.90;;;15.60;99.90;;;;;;6218020;22;20084;-86
2021/08/07 04:08:00;;;;;;;10.77;3.97;;;15.60;99.90;;;;;;6217009;22;20126;-84
2021/08/07 04:10:26;;;;;;;9.10;4.07;;;15.60;99.90;;;;;;6278090;22;20531;-85
2021/08/07 04:12:51;;;;;;;9.00;4.20;;;15.50;99.90;;;;;;6243561;22;20096;-86
2021/08/07 04:15:17;;;;;;;9.85;4.28;;;15.50;99.90;;;;;;6244053;22;20348;-86
2021/08/07 04:17:43;;;;;;;7.97;4.20;;;15.40;99.90;;;;;;6242714;22;20058;-86
2021/08/07 04:20:10;;;;;;;13.30;4.78;;;15.40;99.90;;;;;;6243384;22;20441;-86
2021/08/07 04:22:37;;;;;;;9.50;4.07;;;15.40;99.90;;;;;;6242918;22;20448;-86
2021/08/07 04:25:04;;;;;;;7.38;4.53;;;15.40;99.90;;;;;;6270419;22;20064;-87
2021/08/07 04:27:30;;;;;;;10.23;4.30;;;15.30;99.90;;;;;;6243590;22;20042;-87
2021/08/07 04:29:56;;;;;;;11.25;4.07;;;15.20;99.90;;;;;;6249645;22;20023;-86
2021/08/07 04:32:23;;;;;;;9.48;4.00;;;15.20;99.90;;;;;;6251330;22;20008;-86
2021/08/07 04:34:49;;;;;;;12.25;3.85;;;15.20;99.90;;;;;;6226928;22;20030;-84
2021/08/07 04:37:15;;;;;;;10.50;4.28;;;15.10;99.90;;;;;;6253815;22;20011;-88
2021/08/07 04:39:40;;;;;;;9.82;3.88;;;15.10;99.90;;;;;;6222614;22;20027;-88
2021/08/07 04:42:07;;;;;;;11.80;4.22;;;15.10;99.90;;;;;;6250176;22;20019;-86
2021/08/07 04:44:33;;;;;;;14.05;3.88;;;15.10;99.90;;;;;;6277257;22;20008;-87
2021/08/07 04:46:59;;;;;;;9.75;3.67;;;15.10;99.90;;;;;;6252967;22;20012;-87
2021/08/07 04:49:25;;;;;;;12.65;4.05;;;15.00;99.90;;;;;;6249023;22;20023;-86
2021/08/07 04:51:50;;;;;;;9.75;3.97;;;15.00;99.90;;;;;;6247975;22;20437;-86
2021/08/07 04:54:16;;;;;;;12.48;4.10;;;15.00;99.90;;;;;;6249453;22;20016;-86
2021/08/07 04:56:43;;;;;;;18.17;4.10;;;15.00;99.90;;;;;;6223456;22;20018;-87
2021/08/07 04:59:08;;;;;;;13.18;4.32;;;15.00;99.90;;;;;;6246079;22;20024;-87
2021/08/07 05:01:35;;;;;;;16.55;4.15;;;15.00;99.90;;;;;;6276078;22;20031;-86
2021/08/07 05:04:00;;;;;;;11.40;3.88;;;15.00;99.90;;;;;;6279280;22;20322;-86
2021/08/07 05:06:27;;;;;;;11.57;3.90;;;15.10;99.90;;;;;;6220850;22;20016;-84
2021/08/07 05:08:53;;;;;;;9.20;3.95;;;15.10;99.90;;;;;;6240939;22;20068;-83
2021/08/07 05:11:19;;;;;;;8.13;3.50;;;15.10;99.90;;;;;;6244792;22;20019;-84
2021/08/07 05:13:45;;;;;;;15.02;4.00;;;15.10;99.90;;;;;;6242684;22;20034;-84
2021/08/07 05:16:11;;;;;;;11.32;4.05;;;15.10;99.90;;;;;;6241389;22;20011;-86
2021/08/07 05:18:36;;;;;;;15.68;4.13;;;15.10;99.90;;;;;;6215752;22;20103;-84
2021/08/07 05:21:02;;;;;;;11.77;4.28;;;15.20;99.90;;;;;;6266134;22;20067;-85
2021/08/07 05:23:28;;;;;;;16.95;3.95;;;15.20;99.90;;;;;;6241689;22;20019;-86
2021/08/07 05:25:54;;;;;;;10.82;3.90;;;15.30;99.90;;;;;;6240954;22;20044;-86
2021/08/07 05:28:20;;;;;;;12.98;4.00;;;15.30;99.90;;;;;;6213066;22;20020;-84
2021/08/07 05:30:46;;;;;;;7.78;3.35;;;15.40;99.90;;;;;;6264559;22;20011;-85
2021/08/07 05:33:11;;;;;;;17.23;3.95;;;15.40;99.90;;;;;;6215541;22;20349;-85
2021/08/07 05:35:37;;;;;;;10.20;3.88;;;15.40;99.90;;;;;;6266544;22;20449;-84
2021/08/07 05:38:03;;;;;;;13.35;4.30;;;15.40;99.90;;;;;;6217253;22;20012;-85
2021/08/07 05:40:29;;;;;;;12.32;4.85;;;15.50;99.90;;;;;;6242169;22;20016;-86
2021/08/07 05:42:56;;;;;;;11.82;3.65;;;15.50;99.90;;;;;;6216805;22;20612;-86
2021/08/07 05:45:22;;;;;;;11.95;4.20;;;15.40;99.90;;;;;;6240524;22;20020;-85
2021/08/07 05:47:48;;;;;;;18.95;4.22;;;15.40;99.90;;;;;;6270731;22;20046;-85
2021/08/07 05:50:14;;;;;;;11.35;3.95;;;15.40;99.90;;;;;;6219757;22;20329;-84
2021/08/07 05:52:40;;;;;;;13.27;4.13;;;15.50;99.90;;;;;;6235724;22;20043;-86
2021/08/07 05:55:06;;;;;;;12.40;4.22;;;15.50;99.90;;;;;;6288008;22;20094;-85
2021/08/07 05:57:33;;;;;;;15.55;4.60;;;15.50;99.90;;;;;;6239217;22;20043;-86
2021/08/07 05:59:59;;;;;;;9.27;3.97;;;15.50;99.90;;;;;;6191262;22;20011;-85
2021/08/07 06:02:24;;;;;;;10.05;4.03;;;15.60;99.90;;;;;;6244933;22;20026;-86
2021/08/07 06:04:51;;;;;;;14.48;4.22;;;15.60;99.90;;;;;;6217457;22;20080;-88
2021/08/07 06:07:17;;;;;;;12.98;4.60;;;15.60;99.90;;;;;;6244262;22;20022;-86
2021/08/07 06:09:43;;;;;;;16.33;4.65;;;15.70;99.90;;;;;;6270842;22;20110;-86
2021/08/07 06:12:09;;;;;;;9.90;3.97;;;15.80;99.90;;;;;;6238409;22;20489;-84
2021/08/07 06:14:35;;;;;;;10.68;4.40;;;15.80;99.90;;;;;;6215492;22;20329;-86
2021/08/07 06:17:00;;;;;;;14.32;4.95;;;15.80;99.90;;;;;;6219966;22;20016;-86
2021/08/07 06:19:26;;;;;;;11.98;4.47;;;15.90;99.90;;;;;;6241526;22;20012;-86
2021/08/07 06:21:52;;;;;;;16.98;4.70;;;15.90;99.90;;;;;;6222883;22;20015;-84
2021/08/07 06:24:18;;;;;;;10.43;4.50;;;16.00;99.90;;;;;;6247013;22;20015;-86
2021/08/07 06:26:44;;;;;;;10.50;4.63;;;16.00;99.90;;;;;;6247168;22;20384;-85
2021/08/07 06:29:10;;;;;;;12.68;4.78;;;16.00;99.90;;;;;;6244958;22;20015;-89
2021/08/07 06:31:35;;;;;;;11.23;5.13;;;16.10;99.90;;;;;;6273425;22;20042;-86
2021/08/07 06:34:02;;;;;;;12.85;4.85;;;16.10;99.90;;;;;;6217267;22;20347;-85
2021/08/07 06:36:29;;;;;;;12.85;5.05;;;16.10;99.90;;;;;;6241550;22;20663;-89
2021/08/07 06:38:55;;;;;;;12.30;4.75;;;16.20;99.90;;;;;;6241492;22;20018;-86
2021/08/07 06:41:21;;;;;;;12.82;5.80;;;16.20;99.90;;;;;;6242419;22;20016;-85
2021/08/07 06:43:48;;;;;;;11.73;5.05;;;16.20;99.90;;;;;;6273417;22;20020;-87
2021/08/07 06:46:14;;;;;;;10.60;5.03;;;16.20;99.90;;;;;;6247272;22;20103;-86
2021/08/07 06:48:40;;;;;;;11.05;5.40;;;16.20;99.90;;;;;;6238696;22;20020;-84
2021/08/07 06:51:06;;;;;;;17.08;5.88;;;16.30;99.90;;;;;;6242617;22;20261;-86
2021/08/07 06:53:33;;;;;;;11.30;5.60;;;16.30;99.90;;;;;;6240337;22;20019;-84
2021/08/07 06:55:59;;;;;;;14.75;5.18;;;16.40;99.90;;;;;;6239383;22;20356;-84
2021/08/07 06:58:25;;;;;;;13.52;5.45;;;16.40;99.90;;;;;;6217850;22;20466;-87
2021/08/07 07:00:51;;;;;;;8.77;5.22;;;16.40;99.90;;;;;;6213915;22;20271;-85
2021/08/07 07:03:17;;;;;;;13.88;5.22;;;16.50;99.90;;;;;;6219383;22;20043;-85
2021/08/07 07:05:43;;;;;;;10.88;5.28;;;16.50;99.90;;;;;;6217388;22;20020;-85
2021/08/07 07:08:09;;;;;;;11.63;5.07;;;16.60;99.90;;;;;;6242027;22;20016;-84
2021/08/07 07:10:37;;;;;;;15.02;4.80;;;16.60;99.90;;;;;;6241732;22;20432;-86
2021/08/07 07:13:03;;;;;;;13.20;5.13;;;16.70;99.90;;;;;;6250094;22;20170;-85
2021/08/07 07:15:29;;;;;;;9.68;4.75;;;16.80;99.90;;;;;;6269339;22;20046;-86
2021/08/07 07:17:56;;;;;;;11.82;4.50;;;16.90;99.90;;;;;;6243517;22;20015;-87
2021/08/07 07:20:22;;;;;;;9.68;4.45;;;16.90;99.90;;;;;;6269330;22;20019;-86
2021/08/07 07:22:49;;;;;;;18.23;4.82;;;17.00;99.90;;;;;;6270906;22;20429;-87
2021/08/07 07:25:17;;;;;;;11.38;4.38;;;17.00;99.90;;;;;;6219760;22;20023;-85
2021/08/07 07:27:43;;;;;;;11.90;4.90;;;17.00;99.90;;;;;;6218739;22;20093;-85
2021/08/07 07:30:10;;;;;;;7.90;3.88;;;17.10;99.90;;;;;;6243758;22;20113;-86
2021/08/07 07:32:36;;;;;;;13.98;4.55;;;17.20;99.90;;;;;;6239304;22;20018;-90
2021/08/07 07:35:03;;;;;;;8.77;3.63;;;17.30;99.60;;;;;;6241657;22;20016;-84
2021/08/07 07:37:29;;;;;;;12.23;4.20;;;17.40;99.50;;;;;;6245791;22;20109;-88
2021/08/07 07:39:55;;;;;;;12.82;4.00;;;17.60;99.40;;;;;;6271961;22;20016;-86
2021/08/07 07:42:21;;;;;;;8.45;3.70;;;17.60;99.10;;;;;;6246582;22;20045;-85
2021/08/07 07:44:47;;;;;;;8.00;3.88;;;17.60;98.70;;;;;;6214335;22;20035;-87
2021/08/07 07:47:13;;;;;;;9.32;3.75;;;17.60;98.60;;;;;;6265861;22;20009;-88
2021/08/07 07:49:39;;;;;;;11.82;3.40;;;17.70;98.30;;;;;;6246186;22;20027;-86
2021/08/07 07:52:05;;;;;;;6.85;3.00;;;17.80;98.30;;;;;;6249381;22;19999;-88
2021/08/07 07:54:32;;;;;;;8.13;3.15;;;17.90;97.70;;;;;;6265807;22;20590;-89
2021/08/07 07:59:33;;;;;;;10.55;2.63;;;18.10;96.90;;;;;;6234264;22;20031;-92
2021/08/07 08:02:02;;;;;;;9.15;2.97;;;18.20;96.80;;;;;;6194165;23;20016;-91
2021/08/07 08:04:29;;;;;;;6.93;2.63;;;18.30;96.80;;;;;;6194315;23;20027;-91
2021/08/07 08:06:56;;;;;;;8.85;2.92;;;18.40;96.60;;;;;;6225601;22;20022;-93
2021/08/07 08:09:22;;;;;;;9.90;2.50;;;18.50;96.30;;;;;;6231991;22;20086;-93
2021/08/07 08:11:48;;;;;;;5.53;2.15;;;18.50;95.90;;;;;;6170024;23;20012;-90
2021/08/07 08:14:14;;;;;;;4.18;2.17;;;18.60;95.10;;;;;;6192666;23;20016;-91
2021/08/07 08:16:39;;;;;;;10.02;2.42;;;18.50;95.00;;;;;;6194706;23;20008;-92
2021/08/07 08:19:06;;;;;;;7.78;2.00;;;18.50;95.00;;;;;;6168568;23;20016;-93
2021/08/07 08:21:35;;;;;;;7.70;2.15;;;18.50;95.10;;;;;;6168680;23;20008;-93
2021/08/07 08:24:00;;;;;;;13.02;2.28;;;18.50;95.00;;;;;;6193894;23;20024;-93
2021/08/07 08:26:26;;;;;;;7.55;2.30;;;18.50;94.90;;;;;;6220073;23;20015;-93
2021/08/07 08:28:52;;;;;;;6.43;2.13;;;18.40;94.70;;;;;;6192479;23;20436;-93
2021/08/07 08:31:21;;;;;;;5.82;2.50;;;18.40;94.70;;;;;;6170573;23;20019;-93
2021/08/07 08:33:46;;;;;;;5.53;1.90;;;18.30;94.80;;;;;;6198534;23;20082;-93
2021/08/07 08:36:18;;;;;;;6.53;2.42;;;18.30;94.90;;;;;;6199845;23;20031;-93
2021/08/07 08:39:00;;;;;;;5.30;2.27;;;18.30;94.90;;;;;;6207821;23;20054;-94
2021/08/07 08:41:27;;;;;;;6.47;2.42;;;18.20;95.20;;;;;;6211146;23;20012;-94
2021/08/07 08:43:53;;;;;;;6.45;2.15;;;18.20;95.40;;;;;;6181781;23;20060;-95
2021/08/07 08:46:20;;;;;;;6.85;2.33;;;18.30;95.30;;;;;;6206536;23;20445;-93
2021/08/07 08:48:53;;;;;;;4.50;1.88;;;18.30;95.50;;;;;;6196790;23;20349;-92
2021/08/07 08:51:26;;;;;;;4.97;2.10;;;18.30;95.00;;;;;;6197634;23;20039;-93
2021/08/07 08:53:52;;;;;;;10.73;2.40;;;18.30;94.70;;;;;;6195723;23;20397;-93
2021/08/07 08:56:21;;;;;;;5.40;1.50;;;18.30;94.70;;;;;;6196553;23;20016;-93
2021/08/07 08:58:47;;;;;;;3.55;1.70;;;18.30;94.50;;;;;;6194365;23;20069;-94
2021/08/07 09:01:13;;;;;;;7.15;2.05;;;18.30;94.30;;;;;;6221731;23;20008;-92
2021/08/07 09:03:40;;;;;;;4.03;1.70;;;18.30;94.50;;;;;;6173715;23;20352;-92
2021/08/07 09:06:06;;;;;;;5.63;1.88;;;18.40;94.50;;;;;;6170256;23;20091;-93
2021/08/07 09:08:35;;;;;;;6.75;2.13;;;18.50;94.40;;;;;;6167867;23;20016;-93
2021/08/07 09:14:50;;;;;;;4.90;1.70;;;18.70;93.80;;;;;;6182253;23;20100;-92
2021/08/07 09:17:20;;;;;;;5.10;1.33;;;18.70;93.40;;;;;;6135786;23;20009;-93
2021/08/07 09:19:53;;;;;;;4.75;1.65;;;18.70;92.80;;;;;;6134260;23;20079;-93
2021/08/07 09:22:25;;;;;;;4.07;1.55;;;18.70;92.70;;;;;;6137186;23;20567;-94
2021/08/07 09:24:57;;;;;;;;;;;18.70;92.90;;;;;;6137258;23;20028;-92
2021/08/07 09:27:44;;;;;;;4.45;1.70;;;18.60;93.40;;;;;;6161087;23;19920;-96
2021/08/07 09:30:16;;;;;;;5.65;1.30;;;18.60;92.90;;;;;;6164172;23;20047;-94
2021/08/07 09:33:32;;;;;;;2.72;1.30;;;18.70;92.40;;;;;;6143298;23;20014;-93
2021/08/07 09:36:07;;;;;;;3.80;1.38;;;18.70;92.30;;;;;;6143855;23;20398;-92
2021/08/07 09:38:46;;;;;;;6.68;1.88;;;18.80;91.90;;;;;;6166305;23;20017;-92
2021/08/07 09:45:10;;;;;;;4.03;1.70;;;19.00;92.30;;;;;;6211737;23;20395;-92
2021/08/07 09:47:55;;;;;;;7.65;1.58;;;19.10;92.00;;;;;;6222238;23;20318;-93
2021/08/07 09:50:35;;;;;;;3.42;1.17;;;19.20;91.40;;;;;;6200277;23;20020;-92
2021/08/07 09:53:03;;;;;;;4.53;1.77;;;19.30;91.30;;;;;;6202630;23;20031;-94
2021/08/07 09:55:30;;;;;;;6.05;1.42;;;19.40;90.20;;;;;;6221311;23;20518;-93
2021/08/07 10:03:08;;;;;;;3.60;1.20;;;19.50;91.20;;;;;;6256652;23;20011;-94
2021/08/07 10:05:44;;;;;;;5.80;1.25;;;19.60;91.20;;;;;;6108300;23;20034;-93
2021/08/07 10:08:35;;;;;;;2.55;1.30;;;19.80;89.60;;;;;;6115521;23;20499;-92
2021/08/07 10:12:01;;;;;;;7.88;1.75;;;19.80;87.80;;;;;;6198770;23;20056;-93
2021/08/07 10:14:58;;;;;;;5.75;1.50;;;19.80;89.90;;;;;;6208508;23;20105;-94
2021/08/07 10:21:04;;;;;;;5.68;1.48;;;19.80;90.70;;;;;;6163374;23;20072;-93
2021/08/07 10:24:06;;;;;;;3.05;1.08;;;19.80;90.00;;;;;;6135157;23;20061;-92
2021/08/07 10:26:48;;;;;;;6.40;1.23;;;19.70;89.70;;;;;;6091346;23;20025;-93
2021/08/07 10:30:16;;;;;;;3.90;1.17;;;19.60;89.40;;;;;;6113744;23;20013;-92
2021/08/07 10:39:57;;;;;;;3.83;1.40;;;19.80;90.90;;;;;;6302280;22;20016;-84
2021/08/07 10:42:23;;;;;;;3.97;1.30;;;20.00;90.40;;;;;;6250559;22;20113;-84
2021/08/07 10:44:49;;;;;;;3.75;1.60;;;20.10;90.40;;;;;;6249900;22;20011;-83
2021/08/07 10:47:43;;;;;;;3.63;0.98;;;20.10;89.50;;;;;;6226020;22;20067;-85
2021/08/07 10:50:25;;;;;;;4.68;1.20;;;20.20;89.60;;;;;;6275742;22;20014;-85
2021/08/07 10:53:03;;;;;;;5.50;1.50;;;20.20;89.60;;;;;;6275706;22;20016;-83
2021/08/07 10:55:51;;;;;;;4.22;1.42;;;20.30;89.70;;;;;;6286427;22;20501;-85
2021/08/07 10:58:37;;;;;;;4.80;1.30;;;20.30;89.90;;;;;;6275126;22;20046;-83
2021/08/07 11:01:25;;;;;;;3.50;1.35;;;20.40;89.90;;;;;;6302982;22;20011;-84
2021/08/07 11:04:12;;;;;;;5.25;1.48;;;20.50;89.50;;;;;;6276052;22;20015;-83
2021/08/07 11:06:38;;;;;;;3.80;1.40;;;20.50;88.30;;;;;;6274809;22;20015;-83
2021/08/07 11:09:30;;;;;;;6.25;1.23;;;20.50;88.60;;;;;;6248304;22;20103;-82
2021/08/07 11:12:11;;;;;;;3.40;1.00;;;20.50;86.90;;;;;;6283793;22;20041;-83
2021/08/07 11:14:40;;;;;;;6.10;1.38;;;20.50;85.30;;;;;;6274451;22;20435;-84
2021/08/07 11:17:05;;;;;;;4.97;1.27;;;20.50;84.30;;;;;;6251420;22;20014;-83
2021/08/07 11:19:44;;;;;;;5.53;1.30;;;20.40;84.10;;;;;;6274883;22;20007;-84
2021/08/07 11:22:10;;;;;;;3.05;1.20;;;20.40;84.30;;;;;;6252320;22;20015;-83
2021/08/07 11:25:01;;;;;;;4.20;1.20;;;20.50;83.70;;;;;;6251495;22;20060;-83
2021/08/07 11:30:21;;;;;;;4.75;1.25;;;20.70;85.10;;;;;;6304690;22;20011;-85
2021/08/07 11:32:56;;;;;;;3.58;1.83;;;20.80;82.80;;;;;;6277801;22;20455;-84
2021/08/07 11:35:31;;;;;;;5.90;1.38;;;20.80;82.40;;;;;;6249610;22;20038;-83
2021/08/07 11:38:09;;;;;;;9.07;1.50;;;20.90;84.10;;;;;;6268837;22;20087;-84
2021/08/07 11:40:44;;;;;;;3.95;1.40;;;20.90;83.70;;;;;;6243355;22;20030;-85
2021/08/07 11:43:17;;;;;;;7.55;1.67;;;21.00;81.50;;;;;;6243452;22;20019;-83
2021/08/07 11:45:44;;;;;;;5.55;1.58;;;20.90;80.30;;;;;;6242716;22;20008;-83
2021/08/07 11:48:10;;;;;;;3.63;1.40;;;21.00;81.50;;;;;;6216056;22;20074;-83
2021/08/07 11:50:42;;;;;;;5.32;1.70;;;21.10;81.20;;;;;;6217929;22;20038;-85
2021/08/07 11:53:20;;;;;;;4.28;1.13;;;21.20;82.30;;;;;;6242443;22;20015;-84
2021/08/07 11:56:07;;;;;;;5.00;1.60;;;21.40;78.40;;;;;;6243557;22;20031;-83
2021/08/07 11:58:41;;;;;;;6.22;1.70;;;21.50;76.60;;;;;;6280992;22;20018;-84
2021/08/07 12:01:08;;;;;;;3.70;1.35;;;21.60;73.80;;;;;;6236592;22;20020;-85
2021/08/07 12:03:43;;;;;;;4.43;1.20;;;21.70;71.60;;;;;;6215647;22;20023;-83
2021/08/07 12:06:09;;;;;;;5.22;1.40;;;21.70;73.60;;;;;;6215092;22;20098;-84
2021/08/07 12:08:36;;;;;;;2.90;1.15;;;21.60;74.00;;;;;;6238409;22;20016;-83
2021/08/07 12:11:05;;;;;;;4.65;1.13;;;21.60;75.30;;;;;;6239970;22;20037;-84
2021/08/07 12:13:36;;;;;;;4.60;1.23;;;21.60;76.40;;;;;;6243356;22;20018;-85
2021/08/07 12:16:12;;;;;;;3.30;1.00;;;21.70;78.30;;;;;;6244014;22;20015;-85
2021/08/07 12:18:44;;;;;;;4.22;1.35;;;21.80;76.00;;;;;;6249747;22;20246;-85
2021/08/07 12:21:23;;;;;;;4.10;1.30;;;21.80;72.70;;;;;;6213551;22;20048;-82
2021/08/07 12:23:51;;;;;;;4.40;1.17;;;21.90;71.00;;;;;;6241477;22;20049;-85
2021/08/07 12:26:19;;;;;;;2.47;0.90;;;21.90;72.00;;;;;;6243062;22;20662;-84
2021/08/07 12:28:45;;;;;;;3.83;1.20;;;22.00;69.80;;;;;;6212508;22;20077;-84
2021/08/07 12:31:12;;;;;;;5.13;1.27;;;22.00;70.10;;;;;;6238861;22;20234;-85
2021/08/07 12:33:41;;;;;;;6.78;1.40;;;22.00;71.50;;;;;;6216605;22;20383;-85
2021/08/07 12:36:22;;;;;;;4.63;1.10;;;22.10;72.70;;;;;;6234423;22;20352;-83
2021/08/07 12:38:50;;;;;;;2.75;1.10;;;22.20;69.90;;;;;;6241888;22;20019;-83
2021/08/07 12:41:19;;;;;;;2.60;1.00;;;22.30;68.80;;;;;;6243435;22;20012;-83
2021/08/07 12:43:46;;;;;;;2.15;1.10;;;22.30;68.80;;;;;;6218269;22;20039;-83
2021/08/07 12:46:15;;;;;;;4.15;1.30;;;22.20;72.00;;;;;;6218393;22;20070;-84
2021/08/07 12:48:55;;;;;;;5.03;1.30;;;22.20;74.20;;;;;;6242960;22;20008;-86
2021/08/07 12:51:29;;;;;;;3.20;1.23;;;22.20;76.00;;;;;;6243614;22;20014;-85
2021/08/07 12:53:57;;;;;;;3.17;1.10;;;22.20;76.10;;;;;;6242731;22;20015;-83
2021/08/07 12:56:25;;;;;;;5.45;1.40;;;22.20;74.90;;;;;;6243468;22;20039;-85
2021/08/07 12:59:05;;;;;;;2.85;1.10;;;22.10;75.10;;;;;;6220234;22;20440;-84
2021/08/07 13:01:36;;;;;;;3.78;1.00;;;22.20;72.50;;;;;;6245717;22;20440;-84
2021/08/07 13:04:08;;;;;;;2.10;1.00;;;22.30;70.30;;;;;;6247956;22;20055;-83
2021/08/07 13:06:56;;;;;;;3.30;1.17;;;22.30;69.70;;;;;;6247136;22;20011;-82
2021/08/07 13:09:30;;;;;;;3.38;1.15;;;22.40;68.70;;;;;;6245091;22;20487;-83
2021/08/07 13:12:10;;;;;;;3.72;1.40;;;22.40;67.80;;;;;;6221147;22;20011;-83
2021/08/07 13:14:38;;;;;;;6.00;1.20;;;22.30;68.20;;;;;;6273251;22;20019;-82
2021/08/07 13:17:05;;;;;;;3.88;1.08;;;22.30;68.00;;;;;;6246537;22;20099;-84
2021/08/07 13:19:35;;;;;;;7.35;1.42;;;22.30;66.50;;;;;;6222158;22;20008;-84
2021/08/07 13:22:20;;;;;;;4.18;1.27;;;22.30;66.30;;;;;;6247476;22;20213;-84
2021/08/07 13:24:57;;;;;;;4.13;0.98;;;22.40;67.70;;;;;;6247455;22;20086;-83